Amy C. Mc Allister — WCZ9520 — position and weather

sailwx.info

Track history (hours):
 
Tides and Currents Weather Stations Pressure Air Temp Water Temp Dewpoint Dewpoint Depression Visibility Wind Speed Wind Dir Waves Ship Positions

Amy C. Mc Allister

Owner: MC ALLISTER TOWING & TRANSPORTATION INC, NEW YORK, NY. More information available from US FCC via Universal Licensing System and Coast Guard Vessel Documentation Center.

Last reported at 2015-Jan-30 04:04 UTC. Time now 2015-Jan-31 13:05 UTC.
Position N 40°56' W 073°54'.

Length 27 m; draft 4.9 m.

Type: Towing. MMSI: 366995040.

Date/timePositionNaut miles runAvg speedWind from/ knotsBaromVisibWave heightAir tempDewpointWater temp
2015-Jan-30 04:04N 40°56' W 073°54'5 6.5
2015-Jan-30 03:16N 40°51' W 073°57'5 6.5
2015-Jan-30 02:33N 40°47' W 073°59'7 6.9
2015-Jan-30 01:33N 40°41' W 074°02'1 1.0
2015-Jan-30 00:33N 40°40' W 074°02'0 0.2
2015-Jan-29 23:33N 40°40' W 074°02'0 0.2
2015-Jan-29 22:34N 40°40' W 074°02'6 5.3
2015-Jan-29 21:31N 40°39' W 074°09'4 4.0
2015-Jan-29 20:25N 40°35' W 074°13'3 2.9
2015-Jan-29 19:16N 40°38' W 074°12'1 2.0
2015-Jan-29 18:32N 40°38' W 074°10'0 0.0
2015-Jan-29 17:33N 40°38' W 074°10'3 3.1
2015-Jan-29 16:27N 40°36' W 074°12'2 0.6
2015-Jan-29 13:33N 40°37' W 074°12'2 2.1
2015-Jan-29 12:32N 40°38' W 074°10'0 0.0
2015-Jan-29 11:33N 40°38' W 074°10'1 0.1
2015-Jan-29 00:18N 40°39' W 074°11'6 8.3
2015-Jan-28 23:32N 40°40' W 074°03'1 0.9
2015-Jan-28 22:33N 40°40' W 074°02'4 4.1
2015-Jan-28 21:33N 40°43' W 073°58'24 8.1
2015-Jan-28 18:33N 40°59' W 073°34'10 9.6
2015-Jan-28 17:33N 41°02' W 073°22'9 9.3
2015-Jan-28 16:33N 41°05' W 073°10'12 9.1
2015-Jan-28 15:11N 41°11' W 072°56'5 8.0
2015-Jan-28 14:32N 41°16' W 072°55'2 0.2
2015-Jan-28 06:06N 41°18' W 072°54'0 0.0
2015-Jan-28 05:33N 41°18' W 072°54'0 0.0
2015-Jan-28 04:33N 41°18' W 072°54'0 0.0
2015-Jan-28 03:30N 41°18' W 072°54'0 0.0
2015-Jan-28 02:33N 41°18' W 072°54'0 0.0
2015-Jan-28 01:14N 41°18' W 072°54'0 0.0
2015-Jan-27 17:24N 41°18' W 072°54'0 0.0
2015-Jan-27 16:32N 41°18' W 072°54'0 0.0
2015-Jan-27 15:33N 41°18' W 072°54'0 0.0
2015-Jan-27 14:33N 41°18' W 072°54'0 0.0
2015-Jan-27 13:33N 41°18' W 072°54'0 0.0
2015-Jan-27 12:04N 41°18' W 072°54'0 0.0
2015-Jan-27 11:30N 41°18' W 072°54'0 0.0
2015-Jan-27 10:33N 41°18' W 072°54'0 0.0
2015-Jan-27 09:30N 41°18' W 072°54'0 0.0
2015-Jan-27 08:24N 41°18' W 072°54'0 0.0
2015-Jan-27 07:33N 41°18' W 072°54'0 0.0
2015-Jan-27 06:30N 41°18' W 072°54'0 0.0
2015-Jan-27 05:33N 41°18' W 072°54'0 0.0
2015-Jan-27 04:33N 41°18' W 072°54'0 0.0
2015-Jan-27 03:33N 41°18' W 072°54'0 0.0
2015-Jan-27 02:33N 41°18' W 072°54'0 0.0
2015-Jan-27 01:33N 41°18' W 072°54'0 0.0
2015-Jan-26 16:32N 41°18' W 072°54'0 0.0
2015-Jan-26 15:33N 41°18' W 072°54'0 0.0
2015-Jan-26 14:33N 41°18' W 072°54'6 6.4
2015-Jan-26 13:33N 41°11' W 072°56'9 8.6
2015-Jan-26 12:33N 41°06' W 073°05'9 8.7
2015-Jan-26 11:33N 41°03' W 073°16'9 8.7
2015-Jan-26 10:33N 41°01' W 073°27'9 8.6
2015-Jan-26 09:33N 40°57' W 073°38'8 8.0
2015-Jan-26 08:33N 40°52' W 073°45'7 6.6
2015-Jan-26 07:31N 40°48' W 073°52'6 6.0
2015-Jan-26 06:33N 40°44' W 073°58'5 5.4
2015-Jan-26 05:33N 40°40' W 074°03'2 1.9
2015-Jan-26 04:33N 40°38' W 074°04'1 1.3
2015-Jan-26 03:33N 40°39' W 074°05'6 5.6
2015-Jan-26 02:30N 40°37' W 074°12'4 3.3
2015-Jan-26 01:20N 40°33' W 074°14'0 0.0
2015-Jan-26 00:16N 40°33' W 074°14'0 0.1
2015-Jan-25 23:32N 40°34' W 074°14'0 0.0
2015-Jan-25 17:30N 40°34' W 074°14'0 0.0
2015-Jan-25 14:05N 40°34' W 074°14'1 1.2
2015-Jan-25 13:05N 40°32' W 074°15'5 4.8
2015-Jan-25 12:08N 40°36' W 074°12'3 1.5
2015-Jan-25 10:22N 40°38' W 074°10'0 0.0
2015-Jan-25 09:19N 40°38' W 074°10'0 0.0
2015-Jan-25 08:31N 40°38' W 074°10'0 0.0
2015-Jan-25 04:08N 40°38' W 074°10'0 0.0
2015-Jan-25 03:32N 40°38' W 074°10'0 0.0
2015-Jan-25 02:27N 40°38' W 074°10'0 0.0
2015-Jan-25 01:27N 40°38' W 074°10'0 0.0
2015-Jan-25 00:30N 40°38' W 074°10'0 0.0
2015-Jan-24 23:29N 40°38' W 074°10'0 0.0
2015-Jan-24 22:33N 40°38' W 074°10'0 0.0
2015-Jan-24 21:28N 40°38' W 074°10'0 0.0
2015-Jan-24 20:21N 40°38' W 074°10'0 0.0
2015-Jan-24 19:21N 40°38' W 074°10'0 0.0
2015-Jan-24 17:26N 40°38' W 074°10'0 0.2
2015-Jan-24 16:32N 40°38' W 074°10'0 0.1
2015-Jan-24 14:33N 40°38' W 074°10'0 0.0
2015-Jan-24 13:33N 40°38' W 074°10'0 0.0
2015-Jan-24 12:31N 40°38' W 074°10'0 0.0
2015-Jan-24 09:32N 40°38' W 074°10'0 0.0
2015-Jan-24 06:20N 40°38' W 074°10'0 0.0
2015-Jan-24 05:30N 40°38' W 074°10'0 0.0
2015-Jan-24 04:29N 40°38' W 074°10'0 0.0
2015-Jan-24 03:22N 40°38' W 074°10'0 0.0
2015-Jan-24 02:16N 40°38' W 074°10'0 0.0
2015-Jan-24 01:33N 40°38' W 074°10'0 0.0
2015-Jan-24 00:31N 40°38' W 074°10'0 0.0
2015-Jan-23 21:18N 40°38' W 074°10'2 1.1
2015-Jan-23 19:33N 40°39' W 074°07'7 6.6
2015-Jan-23 18:33N 40°43' W 074°01'7 7.1
2015-Jan-23 17:32N 40°50' W 073°57'3 0.1
2015-Jan-22 09:06N 40°48' W 073°59'2 4.6
2015-Jan-22 08:33N 40°45' W 074°01'5 5.1
2015-Jan-22 07:33N 40°40' W 074°02'7 6.5
2015-Jan-22 06:33N 40°39' W 074°11'0 0.1
2015-Jan-22 01:25N 40°39' W 074°11'1 1.0
2015-Jan-22 00:17N 40°38' W 074°10'0 0.0
2015-Jan-21 23:28N 40°38' W 074°10'0 0.0
2015-Jan-21 22:50N 40°38' W 074°10'0 0.1
2015-Jan-21 22:46N 40°38' W 074°10'0 0.0
2015-Jan-21 22:32N 40°38' W 074°10'0 0.0
2015-Jan-21 20:31N 40°38' W 074°10'0 0.0
2015-Jan-21 19:32N 40°38' W 074°10'0 0.0
2015-Jan-21 18:30N 40°38' W 074°10'0 0.0
2015-Jan-21 17:33N 40°38' W 074°10'0 0.0
2015-Jan-21 16:32N 40°38' W 074°10'0 0.0
2015-Jan-21 15:31N 40°38' W 074°10'4 2.5
2015-Jan-21 14:05N 40°35' W 074°12'3 6.1
2015-Jan-21 13:33N 40°39' W 074°11'7 7.2
2015-Jan-21 12:33N 40°41' W 074°02'3 3.2
2015-Jan-21 11:33N 40°43' W 073°59'5 4.8
2015-Jan-21 10:31N 40°47' W 073°55'6 6.0
2015-Jan-21 09:27N 40°48' W 073°47'13 6.9
2015-Jan-21 07:33N 40°57' W 073°34'7 6.8
2015-Jan-21 06:33N 40°60' W 073°26'7 7.0
2015-Jan-21 05:33N 41°01' W 073°17'7 7.5
2015-Jan-21 04:33N 41°02' W 073°07'8 7.6
2015-Jan-21 03:33N 41°04' W 072°57'8 7.6
2015-Jan-21 02:33N 41°06' W 072°47'8 7.9
2015-Jan-21 01:33N 41°07' W 072°37'8 8.2
2015-Jan-21 00:33N 41°09' W 072°27'8 8.3
2015-Jan-20 23:33N 41°12' W 072°16'8 8.4
2015-Jan-20 22:33N 41°14' W 072°06'8 7.6
2015-Jan-20 21:33N 41°15' W 071°56'7 7.1
2015-Jan-20 20:33N 41°16' W 071°46'7 7.4
2015-Jan-20 19:33N 41°17' W 071°37'8 7.5
2015-Jan-20 18:33N 41°17' W 071°27'8 8.1
2015-Jan-20 17:33N 41°20' W 071°16'8 8.3
2015-Jan-20 16:33N 41°23' W 071°06'13 9.0
2015-Jan-20 15:08N 41°30' W 070°52'  
Track history (hours):
 
Tides and Currents Weather Stations Pressure Air Temp Water Temp Dewpoint Dewpoint Depression Visibility Wind Speed Wind Dir Waves Ship Positions

Amy C. Mc Allister

Owner: MC ALLISTER TOWING & TRANSPORTATION INC, NEW YORK, NY. More information available from US FCC via Universal Licensing System and Coast Guard Vessel Documentation Center.

Last reported at 2015-Jan-30 04:04 UTC. Time now 2015-Jan-31 13:05 UTC.
Position N 40°56' W 073°54'.

Length 27 m; draft 4.9 m.

Type: Towing. MMSI: 366995040.

Date/timePositionNaut miles runAvg speedWind from/ knotsBaromVisibWave heightAir tempDewpointWater temp
2015-Jan-30 04:04N 40°56' W 073°54'5 6.5
2015-Jan-30 03:16N 40°51' W 073°57'5 6.5
2015-Jan-30 02:33N 40°47' W 073°59'7 6.9
2015-Jan-30 01:33N 40°41' W 074°02'1 1.0
2015-Jan-30 00:33N 40°40' W 074°02'0 0.2
2015-Jan-29 23:33N 40°40' W 074°02'0 0.2
2015-Jan-29 22:34N 40°40' W 074°02'6 5.3
2015-Jan-29 21:31N 40°39' W 074°09'4 4.0
2015-Jan-29 20:25N 40°35' W 074°13'3 2.9
2015-Jan-29 19:16N 40°38' W 074°12'1 2.0
2015-Jan-29 18:32N 40°38' W 074°10'0 0.0
2015-Jan-29 17:33N 40°38' W 074°10'3 3.1
2015-Jan-29 16:27N 40°36' W 074°12'2 0.6
2015-Jan-29 13:33N 40°37' W 074°12'2 2.1
2015-Jan-29 12:32N 40°38' W 074°10'0 0.0
2015-Jan-29 11:33N 40°38' W 074°10'1 0.1
2015-Jan-29 00:18N 40°39' W 074°11'6 8.3
2015-Jan-28 23:32N 40°40' W 074°03'1 0.9
2015-Jan-28 22:33N 40°40' W 074°02'4 4.1
2015-Jan-28 21:33N 40°43' W 073°58'24 8.1
2015-Jan-28 18:33N 40°59' W 073°34'10 9.6
2015-Jan-28 17:33N 41°02' W 073°22'9 9.3
2015-Jan-28 16:33N 41°05' W 073°10'12 9.1
2015-Jan-28 15:11N 41°11' W 072°56'5 8.0
2015-Jan-28 14:32N 41°16' W 072°55'2 0.2
2015-Jan-28 06:06N 41°18' W 072°54'0 0.0
2015-Jan-28 05:33N 41°18' W 072°54'0 0.0
2015-Jan-28 04:33N 41°18' W 072°54'0 0.0
2015-Jan-28 03:30N 41°18' W 072°54'0 0.0
2015-Jan-28 02:33N 41°18' W 072°54'0 0.0
2015-Jan-28 01:14N 41°18' W 072°54'0 0.0
2015-Jan-27 17:24N 41°18' W 072°54'0 0.0
2015-Jan-27 16:32N 41°18' W 072°54'0 0.0
2015-Jan-27 15:33N 41°18' W 072°54'0 0.0
2015-Jan-27 14:33N 41°18' W 072°54'0 0.0
2015-Jan-27 13:33N 41°18' W 072°54'0 0.0
2015-Jan-27 12:04N 41°18' W 072°54'0 0.0
2015-Jan-27 11:30N 41°18' W 072°54'0 0.0
2015-Jan-27 10:33N 41°18' W 072°54'0 0.0
2015-Jan-27 09:30N 41°18' W 072°54'0 0.0
2015-Jan-27 08:24N 41°18' W 072°54'0 0.0
2015-Jan-27 07:33N 41°18' W 072°54'0 0.0
2015-Jan-27 06:30N 41°18' W 072°54'0 0.0
2015-Jan-27 05:33N 41°18' W 072°54'0 0.0
2015-Jan-27 04:33N 41°18' W 072°54'0 0.0
2015-Jan-27 03:33N 41°18' W 072°54'0 0.0
2015-Jan-27 02:33N 41°18' W 072°54'0 0.0
2015-Jan-27 01:33N 41°18' W 072°54'0 0.0
2015-Jan-26 16:32N 41°18' W 072°54'0 0.0
2015-Jan-26 15:33N 41°18' W 072°54'0 0.0
2015-Jan-26 14:33N 41°18' W 072°54'6 6.4
2015-Jan-26 13:33N 41°11' W 072°56'9 8.6
2015-Jan-26 12:33N 41°06' W 073°05'9 8.7
2015-Jan-26 11:33N 41°03' W 073°16'9 8.7
2015-Jan-26 10:33N 41°01' W 073°27'9 8.6
2015-Jan-26 09:33N 40°57' W 073°38'8 8.0
2015-Jan-26 08:33N 40°52' W 073°45'7 6.6
2015-Jan-26 07:31N 40°48' W 073°52'6 6.0
2015-Jan-26 06:33N 40°44' W 073°58'5 5.4
2015-Jan-26 05:33N 40°40' W 074°03'2 1.9
2015-Jan-26 04:33N 40°38' W 074°04'1 1.3
2015-Jan-26 03:33N 40°39' W 074°05'6 5.6
2015-Jan-26 02:30N 40°37' W 074°12'4 3.3
2015-Jan-26 01:20N 40°33' W 074°14'0 0.0
2015-Jan-26 00:16N 40°33' W 074°14'0 0.1
2015-Jan-25 23:32N 40°34' W 074°14'0 0.0
2015-Jan-25 17:30N 40°34' W 074°14'0 0.0
2015-Jan-25 14:05N 40°34' W 074°14'1 1.2
2015-Jan-25 13:05N 40°32' W 074°15'5 4.8
2015-Jan-25 12:08N 40°36' W 074°12'3 1.5
2015-Jan-25 10:22N 40°38' W 074°10'0 0.0
2015-Jan-25 09:19N 40°38' W 074°10'0 0.0
2015-Jan-25 08:31N 40°38' W 074°10'0 0.0
2015-Jan-25 04:08N 40°38' W 074°10'0 0.0
2015-Jan-25 03:32N 40°38' W 074°10'0 0.0
2015-Jan-25 02:27N 40°38' W 074°10'0 0.0
2015-Jan-25 01:27N 40°38' W 074°10'0 0.0
2015-Jan-25 00:30N 40°38' W 074°10'0 0.0
2015-Jan-24 23:29N 40°38' W 074°10'0 0.0
2015-Jan-24 22:33N 40°38' W 074°10'0 0.0
2015-Jan-24 21:28N 40°38' W 074°10'0 0.0
2015-Jan-24 20:21N 40°38' W 074°10'0 0.0
2015-Jan-24 19:21N 40°38' W 074°10'0 0.0
2015-Jan-24 17:26N 40°38' W 074°10'0 0.2
2015-Jan-24 16:32N 40°38' W 074°10'0 0.1
2015-Jan-24 14:33N 40°38' W 074°10'0 0.0
2015-Jan-24 13:33N 40°38' W 074°10'0 0.0
2015-Jan-24 12:31N 40°38' W 074°10'0 0.0
2015-Jan-24 09:32N 40°38' W 074°10'0 0.0
2015-Jan-24 06:20N 40°38' W 074°10'0 0.0
2015-Jan-24 05:30N 40°38' W 074°10'0 0.0
2015-Jan-24 04:29N 40°38' W 074°10'0 0.0
2015-Jan-24 03:22N 40°38' W 074°10'0 0.0
2015-Jan-24 02:16N 40°38' W 074°10'0 0.0
2015-Jan-24 01:33N 40°38' W 074°10'0 0.0
2015-Jan-24 00:31N 40°38' W 074°10'0 0.0
2015-Jan-23 21:18N 40°38' W 074°10'2 1.1
2015-Jan-23 19:33N 40°39' W 074°07'7 6.6
2015-Jan-23 18:33N 40°43' W 074°01'7 7.1
2015-Jan-23 17:32N 40°50' W 073°57'3 0.1
2015-Jan-22 09:06N 40°48' W 073°59'2 4.6
2015-Jan-22 08:33N 40°45' W 074°01'5 5.1
2015-Jan-22 07:33N 40°40' W 074°02'7 6.5
2015-Jan-22 06:33N 40°39' W 074°11'0 0.1
2015-Jan-22 01:25N 40°39' W 074°11'1 1.0
2015-Jan-22 00:17N 40°38' W 074°10'0 0.0
2015-Jan-21 23:28N 40°38' W 074°10'0 0.0
2015-Jan-21 22:50N 40°38' W 074°10'0 0.1
2015-Jan-21 22:46N 40°38' W 074°10'0 0.0
2015-Jan-21 22:32N 40°38' W 074°10'0 0.0
2015-Jan-21 20:31N 40°38' W 074°10'0 0.0
2015-Jan-21 19:32N 40°38' W 074°10'0 0.0
2015-Jan-21 18:30N 40°38' W 074°10'0 0.0
2015-Jan-21 17:33N 40°38' W 074°10'0 0.0
2015-Jan-21 16:32N 40°38' W 074°10'0 0.0
2015-Jan-21 15:31N 40°38' W 074°10'4 2.5
2015-Jan-21 14:05N 40°35' W 074°12'3 6.1
2015-Jan-21 13:33N 40°39' W 074°11'7 7.2
2015-Jan-21 12:33N 40°41' W 074°02'3 3.2
2015-Jan-21 11:33N 40°43' W 073°59'5 4.8
2015-Jan-21 10:31N 40°47' W 073°55'6 6.0
2015-Jan-21 09:27N 40°48' W 073°47'13 6.9
2015-Jan-21 07:33N 40°57' W 073°34'7 6.8
2015-Jan-21 06:33N 40°60' W 073°26'7 7.0
2015-Jan-21 05:33N 41°01' W 073°17'7 7.5
2015-Jan-21 04:33N 41°02' W 073°07'8 7.6
2015-Jan-21 03:33N 41°04' W 072°57'8 7.6
2015-Jan-21 02:33N 41°06' W 072°47'8 7.9
2015-Jan-21 01:33N 41°07' W 072°37'8 8.2
2015-Jan-21 00:33N 41°09' W 072°27'8 8.3
2015-Jan-20 23:33N 41°12' W 072°16'8 8.4
2015-Jan-20 22:33N 41°14' W 072°06'8 7.6
2015-Jan-20 21:33N 41°15' W 071°56'7 7.1
2015-Jan-20 20:33N 41°16' W 071°46'7 7.4
2015-Jan-20 19:33N 41°17' W 071°37'8 7.5
2015-Jan-20 18:33N 41°17' W 071°27'8 8.1
2015-Jan-20 17:33N 41°20' W 071°16'8 8.3
2015-Jan-20 16:33N 41°23' W 071°06'13 9.0
2015-Jan-20 15:08N 41°30' W 070°52'  

Dump ship's entire track history